createdAt,value
2023-09-10T00:00:19.749Z,19.15
2023-09-10T00:01:19.904Z,19.09
2023-09-10T00:02:20.365Z,19.02
2023-09-10T00:03:20.436Z,18.96
2023-09-10T00:04:20.359Z,18.96
2023-09-10T00:05:19.688Z,18.97
2023-09-10T00:06:19.712Z,19.01
2023-09-10T00:07:19.867Z,18.96
2023-09-10T00:08:19.673Z,18.96
2023-09-10T00:09:19.651Z,18.93
2023-09-10T00:10:19.648Z,18.93
2023-09-10T00:11:20.371Z,18.90
2023-09-10T00:12:20.357Z,18.93
2023-09-10T00:13:19.618Z,18.91
2023-09-10T00:14:20.352Z,18.89
2023-09-10T00:15:20.611Z,18.94
2023-09-10T00:16:20.403Z,18.93
2023-09-10T00:17:19.570Z,18.90
2023-09-10T00:18:19.568Z,18.94
2023-09-10T00:19:19.879Z,18.93
2023-09-10T00:20:19.537Z,18.91
2023-09-10T00:21:19.514Z,18.96
2023-09-10T00:22:19.567Z,18.90
2023-09-10T00:23:19.519Z,18.86
2023-09-10T00:24:22.356Z,18.91
2023-09-10T00:25:19.506Z,18.76
2023-09-10T00:26:19.460Z,18.96
2023-09-10T00:27:19.876Z,18.93
2023-09-10T00:28:20.455Z,18.86
2023-09-10T00:29:19.435Z,18.84
2023-09-10T00:30:19.427Z,18.83
2023-09-10T00:31:19.447Z,18.83
2023-09-10T00:32:19.912Z,18.83
2023-09-10T00:33:19.465Z,18.82
2023-09-10T00:34:20.360Z,18.83
2023-09-10T00:35:19.357Z,18.84
2023-09-10T00:36:19.355Z,18.72
2023-09-10T00:37:19.326Z,18.76
2023-09-10T00:38:19.410Z,18.74
2023-09-10T00:39:19.313Z,18.75
2023-09-10T00:40:19.317Z,18.78
2023-09-10T00:41:19.288Z,18.78
2023-09-10T00:42:19.390Z,18.84
2023-09-10T00:43:19.270Z,18.79
2023-09-10T00:44:19.262Z,18.68
2023-09-10T00:45:21.880Z,18.74
2023-09-10T00:46:19.279Z,18.76
2023-09-10T00:47:19.246Z,18.76
2023-09-10T00:48:21.849Z,18.65
2023-09-10T00:49:19.223Z,18.68
2023-09-10T00:50:21.849Z,18.65
2023-09-10T00:51:19.186Z,18.57
2023-09-10T00:52:19.184Z,18.56
2023-09-10T00:53:21.898Z,18.51
2023-09-10T00:54:19.186Z,18.64
2023-09-10T00:55:21.853Z,18.51
2023-09-10T00:56:19.118Z,18.49
2023-09-10T00:57:19.123Z,18.51
2023-09-10T00:58:19.088Z,18.49
2023-09-10T00:59:19.894Z,18.49
2023-09-10T01:00:19.074Z,18.53
2023-09-10T01:01:19.136Z,18.46
2023-09-10T01:02:19.155Z,18.56
2023-09-10T01:03:21.921Z,18.51
2023-09-10T01:04:19.026Z,18.46
2023-09-10T01:05:19.098Z,18.44
2023-09-10T01:06:19.013Z,18.41
2023-09-10T01:07:19.391Z,18.41
2023-09-10T01:08:19.865Z,18.42
2023-09-10T01:09:19.110Z,18.38
2023-09-10T01:10:20.460Z,18.50
2023-09-10T01:11:19.853Z,18.41
2023-09-10T01:12:21.859Z,18.44
2023-09-10T01:13:19.853Z,18.35
2023-09-10T01:14:18.938Z,18.38
2023-09-10T01:15:18.921Z,18.39
2023-09-10T01:16:18.980Z,18.41
2023-09-10T01:17:19.017Z,18.46
2023-09-10T01:18:25.889Z,18.41
2023-09-10T01:19:18.860Z,18.38
2023-09-10T01:20:18.915Z,18.41
2023-09-10T01:21:19.357Z,18.36
2023-09-10T01:22:18.835Z,18.36
2023-09-10T01:23:18.850Z,18.36
2023-09-10T01:24:19.352Z,18.35
2023-09-10T01:25:19.363Z,18.38
2023-09-10T01:26:18.827Z,18.32
2023-09-10T01:27:18.773Z,18.35
2023-09-10T01:28:19.361Z,18.34
2023-09-10T01:29:18.827Z,18.36
2023-09-10T01:30:18.747Z,18.35
2023-09-10T01:31:18.757Z,18.31
2023-09-10T01:32:18.719Z,18.35
2023-09-10T01:33:18.722Z,18.32
2023-09-10T01:34:18.698Z,18.34
2023-09-10T01:35:33.362Z,18.29
2023-09-10T01:36:18.708Z,18.23
2023-09-10T01:37:18.665Z,18.25
2023-09-10T01:38:19.362Z,18.25
2023-09-10T01:39:18.639Z,18.23
2023-09-10T01:40:18.652Z,18.21
2023-09-10T01:41:19.355Z,18.23
2023-09-10T01:42:18.632Z,18.13
2023-09-10T01:43:18.602Z,18.25
2023-09-10T01:44:18.599Z,18.28
2023-09-10T01:45:19.372Z,18.17
2023-09-10T01:46:19.378Z,18.16
2023-09-10T01:47:18.615Z,18.14
2023-09-10T01:48:21.367Z,18.14
2023-09-10T01:49:25.377Z,18.13
2023-09-10T01:50:18.562Z,18.16
2023-09-10T01:51:21.367Z,18.13
2023-09-10T01:52:18.891Z,18.13
2023-09-10T01:53:19.369Z,18.13
2023-09-10T01:54:18.470Z,18.07
2023-09-10T01:55:18.457Z,18.05
2023-09-10T01:56:21.374Z,18.10
2023-09-10T01:57:18.445Z,18.02
2023-09-10T01:58:18.472Z,18.10
2023-09-10T01:59:18.494Z,18.19
2023-09-10T02:00:18.423Z,18.02
2023-09-10T02:01:18.392Z,18.05
2023-09-10T02:02:19.503Z,18.11
2023-09-10T02:03:18.474Z,18.01
2023-09-10T02:04:18.483Z,18.01
2023-09-10T02:05:18.384Z,17.99
2023-09-10T02:06:18.340Z,17.99
2023-09-10T02:07:18.878Z,18.04
2023-09-10T02:08:18.342Z,18.01
2023-09-10T02:09:18.398Z,18.01
2023-09-10T02:10:18.864Z,18.02
2023-09-10T02:11:18.310Z,18.09
2023-09-10T02:12:20.870Z,18.07
2023-09-10T02:13:18.284Z,18.02
2023-09-10T02:14:18.468Z,18.04
2023-09-10T02:15:18.279Z,17.99
2023-09-10T02:16:18.309Z,17.99
2023-09-10T02:17:18.276Z,17.94
2023-09-10T02:18:18.310Z,17.87
2023-09-10T02:19:18.881Z,17.91
2023-09-10T02:20:18.466Z,17.95
2023-09-10T02:21:18.881Z,17.86
2023-09-10T02:22:18.174Z,17.94
2023-09-10T02:23:18.156Z,17.92
2023-09-10T02:24:18.174Z,17.87
2023-09-10T02:25:18.140Z,17.96
2023-09-10T02:26:18.217Z,17.91
2023-09-10T02:27:18.164Z,17.96
2023-09-10T02:28:18.861Z,17.95
2023-09-10T02:29:20.896Z,17.92
2023-09-10T02:30:18.873Z,17.94
2023-09-10T02:31:18.130Z,17.84
2023-09-10T02:32:18.136Z,17.91
2023-09-10T02:33:18.914Z,17.83
2023-09-10T02:34:24.871Z,17.95
2023-09-10T02:35:18.098Z,17.96
2023-09-10T02:36:18.883Z,17.91
2023-09-10T02:37:18.034Z,17.92
2023-09-10T02:38:18.077Z,17.91
2023-09-10T02:39:17.999Z,17.86
2023-09-10T02:40:17.985Z,17.91
2023-09-10T02:41:24.877Z,17.76
2023-09-10T02:42:17.986Z,17.76
2023-09-10T02:43:17.955Z,17.84
2023-09-10T02:44:18.873Z,17.86
2023-09-10T02:45:17.948Z,17.91
2023-09-10T02:46:18.959Z,17.86
2023-09-10T02:47:17.928Z,17.79
2023-09-10T02:48:17.904Z,17.71
2023-09-10T02:49:17.884Z,17.80
2023-09-10T02:50:17.886Z,17.77
2023-09-10T02:51:17.868Z,17.74
2023-09-10T02:52:20.367Z,17.77
2023-09-10T02:53:17.874Z,17.76
2023-09-10T02:54:17.833Z,17.77
2023-09-10T02:55:17.828Z,17.74
2023-09-10T02:56:17.868Z,17.77
2023-09-10T02:57:17.801Z,17.77
2023-09-10T02:58:20.374Z,17.76
2023-09-10T02:59:17.806Z,17.77
2023-09-10T03:00:17.778Z,17.76
2023-09-10T03:01:17.912Z,17.63
2023-09-10T03:02:19.887Z,17.68
2023-09-10T03:03:17.805Z,17.63
2023-09-10T03:04:17.733Z,17.62
2023-09-10T03:05:17.821Z,17.73
2023-09-10T03:06:17.709Z,17.62
2023-09-10T03:07:17.717Z,17.58
2023-09-10T03:08:17.677Z,17.62
2023-09-10T03:09:17.679Z,17.70
2023-09-10T03:10:17.678Z,17.60
2023-09-10T03:11:18.427Z,17.54
2023-09-10T03:12:20.362Z,17.62
2023-09-10T03:13:17.638Z,17.60
2023-09-10T03:14:24.376Z,17.60
2023-09-10T03:15:17.624Z,17.60
2023-09-10T03:16:17.684Z,17.54
2023-09-10T03:17:17.660Z,17.65
2023-09-10T03:18:17.575Z,17.65
2023-09-10T03:19:17.571Z,17.54
2023-09-10T03:20:17.590Z,17.55
2023-09-10T03:21:17.571Z,17.60
2023-09-10T03:22:17.532Z,17.55
2023-09-10T03:23:17.563Z,17.53
2023-09-10T03:24:18.381Z,17.58
2023-09-10T03:25:20.396Z,17.54
2023-09-10T03:26:17.956Z,17.51
2023-09-10T03:27:17.513Z,17.58
2023-09-10T03:28:17.469Z,17.54
2023-09-10T03:29:17.489Z,17.49
2023-09-10T03:30:17.462Z,17.51
2023-09-10T03:31:17.438Z,17.43
2023-09-10T03:32:20.425Z,17.49
2023-09-10T03:33:17.496Z,17.42
2023-09-10T03:34:17.394Z,17.42
2023-09-10T03:35:17.448Z,17.43
2023-09-10T03:36:17.374Z,17.49
2023-09-10T03:37:17.427Z,17.38
2023-09-10T03:38:17.443Z,17.42
2023-09-10T03:39:17.353Z,17.46
2023-09-10T03:40:17.337Z,17.49
2023-09-10T03:41:17.354Z,17.51
2023-09-10T03:42:17.330Z,17.42
2023-09-10T03:43:17.325Z,17.42
2023-09-10T03:44:17.336Z,17.47
2023-09-10T03:45:31.997Z,17.43
2023-09-10T03:46:17.293Z,17.46
2023-09-10T03:47:17.345Z,17.47
2023-09-10T03:48:17.377Z,17.42
2023-09-10T03:49:17.260Z,17.40
2023-09-10T03:50:17.312Z,17.46
2023-09-10T03:51:19.914Z,17.45
2023-09-10T03:52:17.205Z,17.49
2023-09-10T03:53:17.239Z,17.47
2023-09-10T03:54:17.879Z,17.45
2023-09-10T03:55:17.248Z,17.42
2023-09-10T03:56:17.298Z,17.43
2023-09-10T03:57:18.213Z,17.42
2023-09-10T03:58:17.897Z,17.32
2023-09-10T03:59:17.197Z,17.33
2023-09-10T04:00:17.132Z,17.33
2023-09-10T04:01:17.172Z,17.28
2023-09-10T04:02:17.154Z,17.27
2023-09-10T04:03:17.959Z,17.28
2023-09-10T04:04:17.075Z,17.21
2023-09-10T04:05:17.208Z,17.18
2023-09-10T04:06:19.886Z,17.20
2023-09-10T04:07:17.042Z,17.24
2023-09-10T04:08:17.079Z,17.18
2023-09-10T04:09:17.051Z,17.17
2023-09-10T04:10:17.030Z,17.10
2023-09-10T04:11:17.036Z,17.17
2023-09-10T04:12:16.986Z,17.20
2023-09-10T04:13:17.893Z,17.07
2023-09-10T04:14:16.984Z,17.06
2023-09-10T04:15:16.974Z,17.18
2023-09-10T04:16:17.950Z,17.09
2023-09-10T04:17:17.017Z,17.15
2023-09-10T04:18:23.946Z,17.06
2023-09-10T04:19:20.428Z,17.20
2023-09-10T04:20:16.925Z,17.14
2023-09-10T04:21:16.962Z,17.20
2023-09-10T04:22:31.383Z,17.17
2023-09-10T04:23:16.915Z,17.18
2023-09-10T04:24:16.854Z,17.15
2023-09-10T04:25:17.406Z,17.15
2023-09-10T04:26:16.898Z,17.20
2023-09-10T04:27:16.933Z,17.15
2023-09-10T04:28:16.835Z,17.18
2023-09-10T04:29:16.870Z,17.15
2023-09-10T04:30:16.788Z,17.20
2023-09-10T04:31:16.831Z,17.14
2023-09-10T04:32:16.913Z,17.14
2023-09-10T04:33:16.786Z,17.14
2023-09-10T04:34:16.746Z,17.14
2023-09-10T04:35:16.809Z,17.17
2023-09-10T04:36:16.726Z,17.22
2023-09-10T04:37:16.757Z,17.20
2023-09-10T04:38:16.772Z,17.17
2023-09-10T04:39:16.689Z,17.17
2023-09-10T04:40:16.669Z,17.17
2023-09-10T04:41:17.772Z,17.20
2023-09-10T04:42:16.649Z,17.09
2023-09-10T04:43:16.653Z,17.20
2023-09-10T04:44:16.922Z,17.12
2023-09-10T04:45:16.651Z,17.20
2023-09-10T04:46:17.421Z,17.21
2023-09-10T04:47:16.717Z,17.17
2023-09-10T04:48:16.595Z,17.15
2023-09-10T04:49:16.608Z,17.09
2023-09-10T04:50:16.594Z,17.12
2023-09-10T04:51:16.561Z,17.07
2023-09-10T04:52:16.539Z,17.06
2023-09-10T04:53:16.594Z,17.07
2023-09-10T04:54:16.541Z,17.07
2023-09-10T04:55:16.558Z,17.06
2023-09-10T04:56:16.575Z,17.07
2023-09-10T04:57:16.489Z,17.06
2023-09-10T04:58:16.465Z,17.03
2023-09-10T04:59:17.568Z,17.05
2023-09-10T05:00:16.475Z,17.03
2023-09-10T05:01:16.439Z,17.09
2023-09-10T05:02:17.539Z,17.05
2023-09-10T05:03:16.661Z,17.03
2023-09-10T05:04:16.514Z,16.96
2023-09-10T05:05:19.405Z,16.99
2023-09-10T05:06:16.422Z,16.96
2023-09-10T05:07:16.379Z,16.96
2023-09-10T05:08:18.342Z,17.00
2023-09-10T05:09:16.378Z,17.00
2023-09-10T05:10:16.364Z,17.00
2023-09-10T05:11:16.374Z,17.06
2023-09-10T05:12:16.324Z,17.02
2023-09-10T05:13:16.319Z,17.10
2023-09-10T05:14:16.359Z,17.05
2023-09-10T05:15:16.324Z,17.03
2023-09-10T05:16:16.918Z,17.06
2023-09-10T05:17:16.350Z,17.02
2023-09-10T05:18:16.354Z,17.02
2023-09-10T05:19:16.282Z,17.03
2023-09-10T05:20:16.296Z,17.07
2023-09-10T05:21:16.298Z,17.05
2023-09-10T05:22:16.211Z,17.02
2023-09-10T05:23:17.289Z,17.05
2023-09-10T05:24:16.201Z,17.06
2023-09-10T05:25:16.199Z,17.06
2023-09-10T05:26:16.267Z,17.07
2023-09-10T05:27:16.169Z,17.10
2023-09-10T05:28:16.155Z,17.09
2023-09-10T05:29:16.202Z,17.05
2023-09-10T05:30:16.137Z,17.07
2023-09-10T05:31:16.113Z,17.07
2023-09-10T05:32:19.075Z,17.05
2023-09-10T05:33:16.167Z,17.14
2023-09-10T05:34:16.110Z,17.14
2023-09-10T05:35:16.077Z,17.18
2023-09-10T05:36:16.068Z,17.14
2023-09-10T05:37:16.056Z,17.15
2023-09-10T05:38:16.117Z,17.20
2023-09-10T05:39:26.946Z,17.28
2023-09-10T05:40:16.899Z,17.28
2023-09-10T05:41:16.068Z,17.30
2023-09-10T05:42:15.994Z,17.25
2023-09-10T05:43:16.007Z,17.28
2023-09-10T05:44:18.977Z,17.33
2023-09-10T05:45:15.955Z,17.32
2023-09-10T05:46:16.006Z,17.27
2023-09-10T05:47:15.978Z,17.30
2023-09-10T05:48:15.954Z,17.42
2023-09-10T05:49:15.950Z,17.42
2023-09-10T05:50:15.963Z,17.38
2023-09-10T05:51:15.885Z,17.39
2023-09-10T05:52:16.397Z,17.45
2023-09-10T05:53:15.911Z,17.49
2023-09-10T05:54:17.727Z,17.46
2023-09-10T05:55:15.943Z,17.53
2023-09-10T05:56:15.900Z,17.45
2023-09-10T05:57:15.843Z,17.36
2023-09-10T05:58:15.815Z,17.54
2023-09-10T05:59:15.960Z,17.54
2023-09-10T06:00:16.422Z,17.55
2023-09-10T06:01:16.447Z,17.58
2023-09-10T06:02:15.831Z,17.63
2023-09-10T06:03:15.798Z,17.54
2023-09-10T06:04:18.504Z,17.62
2023-09-10T06:05:16.022Z,17.60
2023-09-10T06:06:15.734Z,17.71
2023-09-10T06:07:15.738Z,17.76
2023-09-10T06:08:15.792Z,17.74
2023-09-10T06:09:15.715Z,17.79
2023-09-10T06:10:16.396Z,17.83
2023-09-10T06:11:15.723Z,17.89
2023-09-10T06:12:16.403Z,17.73
2023-09-10T06:13:15.674Z,17.89
2023-09-10T06:14:15.668Z,17.87
2023-09-10T06:15:15.667Z,17.91
2023-09-10T06:16:15.658Z,17.91
2023-09-10T06:17:15.652Z,17.92
2023-09-10T06:18:15.602Z,17.87
2023-09-10T06:19:15.590Z,18.04
2023-09-10T06:20:15.623Z,18.04
2023-09-10T06:21:15.616Z,17.99
2023-09-10T06:22:16.429Z,18.01
2023-09-10T06:23:16.488Z,18.11
2023-09-10T06:24:15.541Z,18.11
2023-09-10T06:25:15.541Z,18.14
2023-09-10T06:26:15.573Z,18.17
2023-09-10T06:27:15.519Z,18.14
2023-09-10T06:28:15.501Z,18.17
2023-09-10T06:29:15.630Z,18.23
2023-09-10T06:30:18.412Z,18.26
2023-09-10T06:31:15.466Z,18.26
2023-09-10T06:32:15.486Z,18.28
2023-09-10T06:33:17.566Z,18.32
2023-09-10T06:34:15.941Z,18.29
2023-09-10T06:35:15.469Z,18.34
2023-09-10T06:36:15.443Z,18.36
2023-09-10T06:37:15.419Z,18.36
2023-09-10T06:38:15.455Z,18.39
2023-09-10T06:39:15.394Z,18.50
2023-09-10T06:40:15.362Z,18.44
2023-09-10T06:41:15.366Z,18.47
2023-09-10T06:42:15.363Z,18.53
2023-09-10T06:43:15.333Z,18.56
2023-09-10T06:44:17.959Z,18.53
2023-09-10T06:45:17.918Z,18.65
2023-09-10T06:46:15.347Z,18.57
2023-09-10T06:47:15.954Z,18.65
2023-09-10T06:48:15.286Z,18.64
2023-09-10T06:49:15.274Z,18.78
2023-09-10T06:50:15.378Z,18.83
2023-09-10T06:51:16.274Z,18.76
2023-09-10T06:52:15.245Z,18.82
2023-09-10T06:53:29.909Z,18.83
2023-09-10T06:54:15.440Z,18.89
2023-09-10T06:55:16.266Z,18.93
2023-09-10T06:56:15.232Z,18.94
2023-09-10T06:57:17.915Z,18.96
2023-09-10T06:58:15.913Z,19.07
2023-09-10T06:59:15.169Z,19.02
2023-09-10T07:00:15.469Z,19.07
2023-09-10T07:01:15.195Z,19.15
2023-09-10T07:02:15.177Z,19.15
2023-09-10T07:03:15.165Z,19.09
2023-09-10T07:04:15.126Z,19.17
2023-09-10T07:05:15.146Z,19.23
2023-09-10T07:06:15.167Z,19.25
2023-09-10T07:07:17.931Z,19.25
2023-09-10T07:08:15.204Z,19.27
2023-09-10T07:09:15.053Z,19.32
2023-09-10T07:10:15.064Z,19.38
2023-09-10T07:11:15.042Z,19.39
2023-09-10T07:12:15.921Z,19.31
2023-09-10T07:13:21.912Z,19.35
2023-09-10T07:14:15.023Z,19.47
2023-09-10T07:15:14.979Z,19.50
2023-09-10T07:16:15.067Z,19.55
2023-09-10T07:17:15.016Z,19.61
2023-09-10T07:18:14.980Z,19.64
2023-09-10T07:19:14.960Z,19.65
2023-09-10T07:20:15.023Z,19.68
2023-09-10T07:21:15.947Z,19.72
2023-09-10T07:22:14.930Z,19.76
2023-09-10T07:23:14.933Z,19.72
2023-09-10T07:24:14.918Z,19.78
2023-09-10T07:25:15.417Z,19.75
2023-09-10T07:26:14.891Z,19.86
2023-09-10T07:27:14.862Z,19.79
2023-09-10T07:28:14.867Z,19.85
2023-09-10T07:29:14.930Z,19.94
2023-09-10T07:30:14.852Z,19.95
2023-09-10T07:31:17.480Z,19.95
2023-09-10T07:32:15.451Z,20.04
2023-09-10T07:33:15.458Z,20.02
2023-09-10T07:34:17.415Z,20.15
2023-09-10T07:35:16.520Z,20.13
2023-09-10T07:36:17.437Z,20.13
2023-09-10T07:37:15.416Z,20.17
2023-09-10T07:38:14.983Z,20.19
2023-09-10T07:39:17.418Z,20.26
2023-09-10T07:40:14.730Z,20.41
2023-09-10T07:41:29.461Z,20.41
2023-09-10T07:42:14.691Z,20.44
2023-09-10T07:43:14.943Z,20.50
2023-09-10T07:44:14.738Z,20.50
2023-09-10T07:45:15.425Z,20.57
2023-09-10T07:46:14.984Z,20.61
2023-09-10T07:47:14.759Z,20.64
2023-09-10T07:48:15.446Z,20.61
2023-09-10T07:49:15.412Z,20.60
2023-09-10T07:50:14.663Z,20.72
2023-09-10T07:51:15.409Z,20.78
2023-09-10T07:52:14.963Z,20.81
2023-09-10T07:53:14.600Z,20.81
2023-09-10T07:54:15.432Z,20.82
2023-09-10T07:55:14.547Z,20.87
2023-09-10T07:56:15.054Z,20.91
2023-09-10T07:57:21.430Z,20.88
2023-09-10T07:58:16.514Z,20.90
2023-09-10T07:59:15.466Z,21.00
2023-09-10T08:00:15.410Z,20.94
2023-09-10T08:01:14.581Z,20.96
2023-09-10T08:02:15.457Z,20.96
2023-09-10T08:03:16.310Z,20.96
2023-09-10T08:04:15.509Z,20.98
2023-09-10T08:05:14.468Z,20.98
2023-09-10T08:06:15.428Z,21.09
2023-09-10T08:07:15.955Z,21.13
2023-09-10T08:08:14.479Z,21.11
2023-09-10T08:09:14.962Z,21.24
2023-09-10T08:10:14.396Z,21.26
2023-09-10T08:11:15.005Z,21.27
2023-09-10T08:12:14.941Z,21.21
2023-09-10T08:13:15.002Z,21.24
2023-09-10T08:14:14.440Z,21.30
2023-09-10T08:15:14.988Z,21.36
2023-09-10T08:16:16.981Z,21.34
2023-09-10T08:17:29.013Z,21.36
2023-09-10T08:18:15.080Z,21.37
2023-09-10T08:19:14.773Z,21.43
2023-09-10T08:20:16.010Z,21.49
2023-09-10T08:21:14.282Z,21.51
2023-09-10T08:22:20.942Z,21.66
2023-09-10T08:23:19.509Z,21.66
2023-09-10T08:24:14.259Z,21.63
2023-09-10T08:25:15.951Z,21.71
2023-09-10T08:26:15.531Z,21.71
2023-09-10T08:27:16.995Z,21.81
2023-09-10T08:28:14.193Z,21.90
2023-09-10T08:29:17.046Z,21.91
2023-09-10T08:30:14.169Z,22.04
2023-09-10T08:31:16.951Z,22.04
2023-09-10T08:32:17.192Z,22.06
2023-09-10T08:33:16.948Z,22.11
2023-09-10T08:34:14.941Z,22.12
2023-09-10T08:35:16.010Z,22.15
2023-09-10T08:36:14.108Z,22.17
2023-09-10T08:37:16.930Z,22.19
2023-09-10T08:38:14.116Z,22.19
2023-09-10T08:39:16.935Z,22.21
2023-09-10T08:40:14.080Z,22.21
2023-09-10T08:41:16.956Z,22.30
2023-09-10T08:42:35.046Z,22.31
2023-09-10T08:43:16.941Z,22.27
2023-09-10T08:44:17.014Z,22.36
2023-09-10T08:45:15.960Z,22.42
2023-09-10T08:46:14.018Z,22.38
2023-09-10T08:47:18.002Z,22.46
2023-09-10T08:48:13.984Z,22.45
2023-09-10T08:49:17.030Z,22.52
2023-09-10T08:50:16.994Z,22.49
2023-09-10T08:51:14.023Z,22.64
2023-09-10T08:52:16.445Z,22.66
2023-09-10T08:53:16.452Z,22.72
2023-09-10T08:54:13.915Z,22.61
2023-09-10T08:55:16.969Z,22.59
2023-09-10T08:56:16.554Z,22.64
2023-09-10T08:57:13.892Z,22.72
2023-09-10T08:58:16.426Z,22.76
2023-09-10T08:59:13.897Z,22.78
2023-09-10T09:00:16.439Z,22.84
2023-09-10T09:01:16.025Z,22.84
2023-09-10T09:02:15.087Z,22.88
2023-09-10T09:03:13.910Z,23.00
2023-09-10T09:04:20.442Z,22.97
2023-09-10T09:05:14.872Z,23.06
2023-09-10T09:06:16.453Z,23.03
2023-09-10T09:07:14.509Z,23.11
2023-09-10T09:08:20.529Z,23.15
2023-09-10T09:09:13.745Z,23.23
2023-09-10T09:10:16.441Z,23.16
2023-09-10T09:11:14.034Z,23.26
2023-09-10T09:12:16.440Z,23.18
2023-09-10T09:13:13.712Z,23.19
2023-09-10T09:14:20.459Z,23.23
2023-09-10T09:15:13.697Z,23.23
2023-09-10T09:16:16.493Z,23.32
2023-09-10T09:17:14.848Z,23.23
2023-09-10T09:18:18.963Z,23.31
2023-09-10T09:19:13.669Z,23.35
2023-09-10T09:20:15.514Z,23.49
2023-09-10T09:21:13.640Z,23.39
2023-09-10T09:22:16.474Z,23.47
2023-09-10T09:23:13.671Z,23.57
2023-09-10T09:24:15.384Z,23.62
2023-09-10T09:25:13.590Z,23.81
2023-09-10T09:26:28.516Z,23.92
2023-09-10T09:27:13.566Z,24.05
2023-09-10T09:28:16.455Z,24.05
2023-09-10T09:29:13.584Z,24.11
2023-09-10T09:30:13.821Z,24.14
2023-09-10T09:31:13.538Z,24.26
2023-09-10T09:32:14.460Z,24.41
2023-09-10T09:33:13.529Z,24.37
2023-09-10T09:34:13.484Z,24.48
2023-09-10T09:35:14.483Z,24.52
2023-09-10T09:36:13.466Z,24.55
2023-09-10T09:37:13.440Z,24.61
2023-09-10T09:38:13.494Z,24.61
2023-09-10T09:39:13.428Z,24.64
2023-09-10T09:40:16.083Z,24.61
2023-09-10T09:41:13.428Z,24.77
2023-09-10T09:42:13.399Z,24.75
2023-09-10T09:43:20.811Z,24.82
2023-09-10T09:44:14.439Z,24.89
2023-09-10T09:45:13.369Z,24.87
2023-09-10T09:46:13.462Z,24.89
2023-09-10T09:47:17.019Z,24.97
2023-09-10T09:48:13.364Z,24.92
2023-09-10T09:49:13.335Z,24.99
2023-09-10T09:50:13.348Z,25.07
2023-09-10T09:51:13.319Z,25.08
2023-09-10T09:52:13.279Z,25.07
2023-09-10T09:53:13.339Z,25.05
2023-09-10T09:54:13.302Z,25.11
2023-09-10T09:55:13.259Z,25.04
2023-09-10T09:56:13.282Z,25.12
2023-09-10T09:57:13.252Z,25.14
2023-09-10T09:58:13.220Z,25.23
2023-09-10T09:59:13.236Z,25.35
2023-09-10T10:00:13.209Z,25.29
2023-09-10T10:01:13.215Z,25.38
2023-09-10T10:02:13.275Z,25.42
2023-09-10T10:03:13.196Z,25.51
2023-09-10T10:04:13.202Z,25.60
2023-09-10T10:05:13.238Z,25.59
2023-09-10T10:06:15.952Z,25.63
2023-09-10T10:07:24.605Z,25.63
2023-09-10T10:08:14.138Z,25.57
2023-09-10T10:09:13.100Z,25.63
2023-09-10T10:10:14.088Z,25.66
2023-09-10T10:11:13.115Z,25.67
2023-09-10T10:12:13.067Z,25.71
2023-09-10T10:13:13.062Z,25.82
2023-09-10T10:14:13.134Z,25.82
2023-09-10T10:15:19.974Z,25.94
2023-09-10T10:16:16.108Z,26.06
2023-09-10T10:17:13.167Z,26.06
2023-09-10T10:18:16.005Z,26.12
2023-09-10T10:19:12.985Z,26.24
2023-09-10T10:20:16.520Z,26.27
2023-09-10T10:21:15.970Z,26.35
2023-09-10T10:22:12.996Z,26.35
2023-09-10T10:23:24.753Z,26.41
2023-09-10T10:24:16.452Z,26.51
2023-09-10T10:25:15.474Z,26.53
2023-09-10T10:26:13.530Z,26.56
2023-09-10T10:27:19.474Z,26.53
2023-09-10T10:28:12.915Z,26.59
2023-09-10T10:29:12.928Z,26.60
2023-09-10T10:30:12.890Z,26.66
2023-09-10T10:31:15.497Z,26.69
2023-09-10T10:32:12.933Z,26.64
2023-09-10T10:33:13.025Z,26.72
2023-09-10T10:34:13.466Z,26.78
2023-09-10T10:35:13.565Z,26.79
2023-09-10T10:36:12.807Z,26.75
2023-09-10T10:37:13.461Z,26.78
2023-09-10T10:38:12.832Z,26.90
2023-09-10T10:39:12.794Z,26.97
2023-09-10T10:40:15.470Z,27.01
2023-09-10T10:41:12.796Z,27.09
2023-09-10T10:42:12.768Z,27.13
2023-09-10T10:43:12.736Z,26.97
2023-09-10T10:44:12.798Z,27.08
2023-09-10T10:45:12.717Z,27.16
2023-09-10T10:46:12.796Z,27.25
2023-09-10T10:47:12.757Z,27.23
2023-09-10T10:48:12.746Z,27.27
2023-09-10T10:49:13.703Z,27.25
2023-09-10T10:50:12.813Z,27.21
2023-09-10T10:51:12.926Z,27.23
2023-09-10T10:52:12.658Z,27.21
2023-09-10T10:53:12.710Z,27.21
2023-09-10T10:54:12.620Z,27.23
2023-09-10T10:55:12.661Z,27.25
2023-09-10T10:56:15.498Z,27.20
2023-09-10T10:57:12.581Z,27.31
2023-09-10T10:58:13.525Z,27.24
2023-09-10T10:59:12.609Z,27.21
2023-09-10T11:00:12.569Z,27.18
2023-09-10T11:01:13.538Z,27.30
2023-09-10T11:02:12.580Z,27.31
2023-09-10T11:03:12.554Z,27.34
2023-09-10T11:04:12.510Z,27.35
2023-09-10T11:05:12.575Z,27.30
2023-09-10T11:06:12.538Z,27.42
2023-09-10T11:07:13.467Z,27.50
2023-09-10T11:08:12.485Z,27.55
2023-09-10T11:09:12.472Z,27.69
2023-09-10T11:10:12.462Z,27.69
2023-09-10T11:11:12.524Z,27.87
2023-09-10T11:12:12.454Z,27.81
2023-09-10T11:13:12.452Z,27.87
2023-09-10T11:14:13.010Z,27.86
2023-09-10T11:15:18.975Z,27.90
2023-09-10T11:16:12.433Z,27.88
2023-09-10T11:17:12.417Z,27.96
2023-09-10T11:18:12.392Z,27.93
2023-09-10T11:19:12.388Z,27.99
2023-09-10T11:20:12.445Z,28.06
2023-09-10T11:21:12.333Z,28.17
2023-09-10T11:22:12.358Z,28.03
2023-09-10T11:23:12.327Z,28.18
2023-09-10T11:24:12.970Z,28.09
2023-09-10T11:25:12.324Z,28.11
2023-09-10T11:26:12.342Z,28.14
2023-09-10T11:27:12.315Z,28.15
2023-09-10T11:28:12.255Z,28.30
2023-09-10T11:29:12.271Z,28.25
2023-09-10T11:30:12.349Z,28.40
2023-09-10T11:31:13.017Z,28.48
2023-09-10T11:32:33.576Z,28.51
2023-09-10T11:33:12.256Z,28.42
2023-09-10T11:34:12.197Z,28.39
2023-09-10T11:35:13.018Z,28.54
2023-09-10T11:36:12.164Z,28.69
2023-09-10T11:37:12.161Z,28.65
2023-09-10T11:38:12.173Z,28.76
2023-09-10T11:39:12.147Z,28.69
2023-09-10T11:40:12.167Z,28.83
2023-09-10T11:41:12.141Z,28.85
2023-09-10T11:42:12.097Z,28.88
2023-09-10T11:43:12.103Z,28.95
2023-09-10T11:44:12.127Z,29.05
2023-09-10T11:45:12.090Z,29.11
2023-09-10T11:46:13.042Z,29.20
2023-09-10T11:47:12.135Z,29.36
2023-09-10T11:48:12.116Z,29.35
2023-09-10T11:49:12.045Z,29.33
2023-09-10T11:50:12.225Z,29.37
2023-09-10T11:51:13.006Z,29.37
2023-09-10T11:52:11.994Z,29.35
2023-09-10T11:53:14.353Z,29.37
2023-09-10T11:54:12.005Z,29.45
2023-09-10T11:55:11.988Z,29.42
2023-09-10T11:56:12.527Z,29.33
2023-09-10T11:57:11.948Z,29.17
2023-09-10T11:58:18.860Z,29.07
2023-09-10T11:59:11.966Z,29.15
2023-09-10T12:00:12.013Z,28.97
2023-09-10T12:01:11.965Z,28.85
2023-09-10T12:02:11.913Z,28.85
2023-09-10T12:03:12.091Z,28.98
2023-09-10T12:04:11.948Z,29.07
2023-09-10T12:05:11.930Z,29.29
2023-09-10T12:06:12.502Z,29.39
2023-09-10T12:07:11.839Z,29.48
2023-09-10T12:08:14.567Z,29.60
2023-09-10T12:09:12.493Z,29.74
2023-09-10T12:10:12.035Z,29.81
2023-09-10T12:11:18.530Z,29.81
2023-09-10T12:12:12.482Z,29.67
2023-09-10T12:13:11.787Z,29.69
2023-09-10T12:14:11.804Z,29.79
2023-09-10T12:15:11.782Z,29.76
2023-09-10T12:16:11.800Z,29.73
2023-09-10T12:17:11.787Z,29.78
2023-09-10T12:18:11.778Z,29.84
2023-09-10T12:19:13.515Z,29.82
2023-09-10T12:20:11.820Z,29.79
2023-09-10T12:21:13.049Z,29.94
2023-09-10T12:22:11.678Z,30.01
2023-09-10T12:23:11.728Z,30.08
2023-09-10T12:24:11.672Z,29.95
2023-09-10T12:25:21.314Z,29.73
2023-09-10T12:26:11.730Z,29.47
2023-09-10T12:27:12.036Z,29.55
2023-09-10T12:28:32.629Z,29.63
2023-09-10T12:29:11.613Z,29.81
2023-09-10T12:30:12.490Z,29.89
2023-09-10T12:31:11.613Z,29.99
2023-09-10T12:32:11.618Z,30.07
2023-09-10T12:33:11.622Z,30.18
2023-09-10T12:34:11.591Z,30.21
2023-09-10T12:35:12.644Z,30.36
2023-09-10T12:36:11.531Z,30.29
2023-09-10T12:37:32.538Z,30.26
2023-09-10T12:38:11.514Z,30.22
2023-09-10T12:39:12.502Z,30.34
2023-09-10T12:40:14.006Z,30.42
2023-09-10T12:41:11.537Z,30.57
2023-09-10T12:42:13.546Z,30.57
2023-09-10T12:43:11.460Z,30.60
2023-09-10T12:44:11.522Z,30.59
2023-09-10T12:45:13.985Z,30.72
2023-09-10T12:46:11.454Z,30.67
2023-09-10T12:47:13.677Z,30.54
2023-09-10T12:48:11.524Z,30.37
2023-09-10T12:49:11.404Z,30.44
2023-09-10T12:50:11.418Z,30.54
2023-09-10T12:51:11.409Z,30.59
2023-09-10T12:52:11.362Z,30.67